Time;durP1;ratioP1;P1;durP2;ratioP2;P2;SDS_P1;SDS_P2;PMS_P1;PMS_P2;Temp;Humidity;BMP_temperature;BMP_pressure;BME280_temperature;BME280_humidity;BME280_pressure;Samples;Min_cycle;Max_cycle;Signal;HPM_P1;HPM_P2
2021/07/06 00:00:36;;;;;;;;;;;15.90;99.90;;;;;;5069434;28;19931;-51
2021/07/06 00:03:01;;;;;;;;;;;15.90;99.90;;;;;;5064481;28;19909;-48
2021/07/06 00:05:27;;;;;;;;;;;15.90;99.90;;;;;;5040920;28;19916;-51
2021/07/06 00:07:52;;;;;;;;;;;15.90;99.90;;;;;;5063522;28;19928;-47
2021/07/06 00:10:19;;;;;;;;;;;15.80;99.90;;;;;;5063862;28;19912;-46
2021/07/06 00:12:44;;;;;;;;;;;15.80;99.90;;;;;;5064032;28;19908;-50
2021/07/06 00:15:12;;;;;;;;;;;15.80;99.90;;;;;;5040302;28;20007;-49
2021/07/06 00:17:38;;;;;;;;;;;15.80;99.90;;;;;;5064238;28;19916;-50
2021/07/06 00:20:07;;;;;;;;;;;15.80;99.90;;;;;;5062250;28;19916;-48
2021/07/06 00:22:32;;;;;;;;;;;15.80;99.90;;;;;;5067800;28;19913;-47
2021/07/06 00:24:58;;;;;;;;;;;15.80;99.90;;;;;;5063351;28;19908;-47
2021/07/06 00:27:23;;;;;;;;;;;15.80;99.90;;;;;;5059692;28;20481;-49
2021/07/06 00:29:49;;;;;;;;;;;15.80;99.90;;;;;;5052070;28;19909;-48
2021/07/06 00:32:14;;;;;;;;;;;15.80;99.90;;;;;;5057734;28;19920;-49
2021/07/06 00:49:55;;;;;;;;;;;15.90;99.90;;;;;;5057497;28;19982;-48
2021/07/06 00:52:20;;;;;;;;;;;15.90;99.90;;;;;;5053771;28;19944;-53
2021/07/06 00:54:46;;;;;;;;;;;15.90;99.90;;;;;;5071103;28;19908;-48
2021/07/06 00:57:11;;;;;;;;;;;15.90;99.90;;;;;;5071380;28;20569;-48
2021/07/06 00:59:37;;;;;;;;;;;15.90;99.90;;;;;;5050441;28;20011;-51
2021/07/06 01:02:02;;;;;;;;;;;15.90;99.90;;;;;;5066693;28;19916;-52
2021/07/06 01:04:28;;;;;;;;;;;15.90;99.90;;;;;;5061868;28;20339;-47
2021/07/06 01:06:53;;;;;;;;;;;16.00;99.90;;;;;;5068162;28;19979;-48
2021/07/06 01:09:19;;;;;;;;;;;16.00;99.90;;;;;;5055242;28;20329;-50
2021/07/06 01:11:45;;;;;;;;;;;16.00;99.90;;;;;;5063949;28;19909;-50
2021/07/06 01:14:10;;;;;;;;;;;16.00;99.90;;;;;;5068978;28;19921;-52
2021/07/06 01:16:35;;;;;;;;;;;16.00;99.90;;;;;;5062206;28;19962;-50
2021/07/06 01:19:01;;;;;;;;;;;16.00;99.90;;;;;;5061823;28;19912;-52
2021/07/06 01:21:27;;;;;;;;;;;16.10;99.90;;;;;;5060709;28;19932;-48
2021/07/06 01:23:52;;;;;;;;;;;16.10;99.90;;;;;;5053804;28;19909;-47
2021/07/06 01:26:18;;;;;;;;;;;16.10;99.90;;;;;;5054225;28;19944;-50
2021/07/06 01:28:43;;;;;;;;;;;16.10;99.90;;;;;;5051068;28;19913;-51
2021/07/06 01:31:09;;;;;;;;;;;16.10;99.90;;;;;;5035465;28;19908;-48
2021/07/06 01:33:35;;;;;;;;;;;16.10;99.90;;;;;;5050851;28;20437;-49
2021/07/06 01:36:04;;;;;;;;;;;16.10;99.90;;;;;;5058384;28;19936;-51
2021/07/06 01:38:30;;;;;;;;;;;16.10;99.90;;;;;;5055116;28;19951;-51
2021/07/06 01:40:56;;;;;;;;;;;16.10;99.90;;;;;;5052388;28;20006;-50
2021/07/06 01:43:22;;;;;;;;;;;16.20;99.90;;;;;;5055971;28;19916;-52
2021/07/06 01:45:47;;;;;;;;;;;16.20;99.90;;;;;;5053348;28;19924;-48
2021/07/06 01:48:13;;;;;;;;;;;16.20;99.90;;;;;;5051099;28;19909;-48
2021/07/06 01:50:40;;;;;;;;;;;16.20;99.90;;;;;;5054264;28;19917;-51
2021/07/06 01:53:07;;;;;;;;;;;16.20;99.90;;;;;;5058094;28;19909;-47
2021/07/06 01:55:34;;;;;;;;;;;16.20;99.90;;;;;;5055106;28;19998;-49
2021/07/06 01:58:00;;;;;;;;;;;16.20;99.90;;;;;;5052678;28;19920;-47
2021/07/06 02:00:27;;;;;;;;;;;16.20;99.90;;;;;;5056125;28;20112;-48
2021/07/06 02:02:56;;;;;;;;;;;16.20;99.90;;;;;;5054166;28;19955;-52
2021/07/06 02:05:22;;;;;;;;;;;16.30;99.90;;;;;;5056969;28;20433;-47
2021/07/06 02:07:47;;;;;;;;;;;16.30;99.90;;;;;;5054480;28;19913;-50
2021/07/06 02:10:13;;;;;;;;;;;16.30;99.90;;;;;;5051769;28;19909;-50
2021/07/06 02:12:39;;;;;;;;;;;16.30;99.90;;;;;;5055318;28;19913;-48
2021/07/06 02:15:06;;;;;;;;;;;16.20;99.90;;;;;;5052350;28;19909;-51
2021/07/06 02:17:31;;;;;;;;;;;16.30;99.90;;;;;;5050379;28;20264;-49
2021/07/06 02:19:57;;;;;;;;;;;16.30;99.90;;;;;;5054312;28;19920;-48
2021/07/06 02:22:22;;;;;;;;;;;16.30;99.90;;;;;;5033844;28;20112;-48
2021/07/06 02:24:48;;;;;;;;;;;16.30;99.90;;;;;;5050168;28;19909;-47
2021/07/06 02:27:13;;;;;;;;;;;16.30;99.90;;;;;;5057153;28;19948;-47
2021/07/06 02:29:39;;;;;;;;;;;16.30;99.90;;;;;;5050064;28;19956;-50
2021/07/06 02:32:05;;;;;;;;;;;16.30;99.90;;;;;;5054454;28;20011;-48
2021/07/06 02:34:30;;;;;;;;;;;16.30;99.90;;;;;;5053792;28;20374;-48
2021/07/06 02:36:56;;;;;;;;;;;16.30;99.90;;;;;;5059503;28;20335;-48
2021/07/06 02:39:21;;;;;;;;;;;16.30;99.90;;;;;;5054917;28;20302;-49
2021/07/06 02:41:47;;;;;;;;;;;16.30;99.90;;;;;;5044380;28;19958;-48
2021/07/06 02:44:13;;;;;;;;;;;16.30;99.90;;;;;;5044295;28;19909;-47
2021/07/06 02:46:38;;;;;;;;;;;16.40;99.90;;;;;;5038738;28;19916;-47
2021/07/06 02:49:04;;;;;;;;;;;16.40;99.90;;;;;;5055053;28;19913;-50
2021/07/06 02:51:29;;;;;;;;;;;16.40;99.90;;;;;;5053957;28;19908;-49
2021/07/06 02:53:55;;;;;;;;;;;16.40;99.90;;;;;;5059054;28;19905;-48
2021/07/06 02:56:20;;;;;;;;;;;16.40;99.90;;;;;;5054882;28;19912;-51
2021/07/06 02:58:46;;;;;;;;;;;16.40;99.90;;;;;;5059205;28;20007;-49
2021/07/06 03:01:11;;;;;;;;;;;16.50;99.90;;;;;;5056875;28;19943;-50
2021/07/06 03:03:37;;;;;;;;;;;16.50;99.90;;;;;;5053862;28;19929;-48
2021/07/06 03:06:02;;;;;;;;;;;16.50;99.90;;;;;;5058597;28;19915;-48
2021/07/06 03:08:30;;;;;;;;;;;16.50;99.90;;;;;;5053780;28;20015;-50
2021/07/06 03:10:56;;;;;;;;;;;16.50;99.90;;;;;;5058960;28;20378;-49
2021/07/06 03:13:21;;;;;;;;;;;16.50;99.90;;;;;;5054694;28;19915;-47
2021/07/06 03:15:47;;;;;;;;;;;16.50;99.90;;;;;;5059012;28;20387;-52
2021/07/06 03:18:12;;;;;;;;;;;16.60;99.90;;;;;;5056804;28;20008;-47
2021/07/06 03:20:38;;;;;;;;;;;16.60;99.90;;;;;;5053394;28;19913;-47
2021/07/06 03:23:04;;;;;;;;;;;16.60;99.90;;;;;;5058322;28;20054;-51
2021/07/06 03:25:31;;;;;;;;;;;16.60;99.90;;;;;;5055725;28;20061;-52
2021/07/06 03:27:57;;;;;;;;;;;16.60;99.90;;;;;;5055892;28;19932;-48
2021/07/06 03:30:24;;;;;;;;;;;16.60;99.90;;;;;;5056592;28;19991;-48
2021/07/06 03:32:50;;;;;;;;;;;16.50;99.90;;;;;;5054236;28;20282;-51
2021/07/06 03:35:16;;;;;;;;;;;16.60;99.90;;;;;;5056568;28;19909;-50
2021/07/06 03:37:41;;;;;;;;;;;16.60;99.90;;;;;;5055734;28;19913;-51
2021/07/06 03:40:08;;;;;;;;;;;16.50;99.90;;;;;;5055312;28;19916;-50
2021/07/06 03:42:34;;;;;;;;;;;16.60;99.90;;;;;;5058003;28;20409;-49
2021/07/06 03:44:59;;;;;;;;;;;16.60;99.90;;;;;;5053196;28;19909;-50
2021/07/06 03:47:25;;;;;;;;;;;16.60;99.90;;;;;;5056717;28;19916;-52
2021/07/06 03:49:50;;;;;;;;;;;16.60;99.90;;;;;;5053633;28;19920;-48
2021/07/06 03:52:16;;;;;;;;;;;16.70;99.90;;;;;;5056593;28;19914;-49
2021/07/06 03:54:41;;;;;;;;;;;16.70;99.90;;;;;;5044296;28;19957;-53
2021/07/06 03:57:07;;;;;;;;;;;16.70;99.90;;;;;;5056251;28;19936;-53
2021/07/06 03:59:32;;;;;;;;;;;16.70;99.90;;;;;;5040404;28;19912;-47
2021/07/06 04:01:57;;;;;;;;;;;16.70;99.90;;;;;;5053114;28;19909;-47
2021/07/06 04:04:24;;;;;;;;;;;16.70;99.90;;;;;;5056038;28;19908;-52
2021/07/06 04:06:49;;;;;;;;;;;16.70;99.90;;;;;;5053985;28;20298;-49
2021/07/06 04:09:15;;;;;;;;;;;16.80;99.90;;;;;;5056103;28;19909;-51
2021/07/06 04:11:41;;;;;;;;;;;16.80;99.90;;;;;;5055498;28;20424;-49
2021/07/06 04:14:06;;;;;;;;;;;16.80;99.90;;;;;;5054901;28;19956;-50
2021/07/06 04:16:32;;;;;;;;;;;16.80;99.90;;;;;;5058125;28;20568;-50
2021/07/06 04:18:57;;;;;;;;;;;16.80;99.90;;;;;;5052625;28;19917;-51
2021/07/06 04:21:23;;;;;;;;;;;16.80;99.90;;;;;;5056111;28;20314;-50
2021/07/06 04:23:49;;;;;;;;;;;16.90;99.90;;;;;;5053296;28;19915;-47
2021/07/06 04:26:15;;;;;;;;;;;16.90;99.90;;;;;;5057380;28;20378;-52
2021/07/06 04:28:40;;;;;;;;;;;16.90;99.90;;;;;;5052097;28;19943;-46
2021/07/06 04:31:06;;;;;;;;;;;17.00;99.90;;;;;;5055765;28;19912;-47
2021/07/06 04:33:31;;;;;;;;;;;17.00;99.90;;;;;;5053077;28;19909;-47
2021/07/06 04:35:57;;;;;;;;;;;17.00;99.90;;;;;;5056059;28;19909;-52
2021/07/06 04:38:23;;;;;;;;;;;17.10;99.90;;;;;;5054000;28;19913;-50
2021/07/06 04:40:48;;;;;;;;;;;17.10;99.90;;;;;;5056793;28;20445;-46
2021/07/06 04:43:14;;;;;;;;;;;17.20;99.90;;;;;;5054910;28;19988;-48
2021/07/06 04:45:39;;;;;;;;;;;17.20;99.90;;;;;;5052029;28;19909;-53
2021/07/06 04:48:05;;;;;;;;;;;17.30;99.90;;;;;;5055401;28;20004;-49
2021/07/06 04:50:34;;;;;;;;;;;17.30;99.90;;;;;;5052685;28;19928;-47
2021/07/06 04:53:00;;;;;;;;;;;17.30;99.90;;;;;;5055991;28;19909;-47
2021/07/06 04:55:25;;;;;;;;;;;17.40;99.90;;;;;;5052672;28;19909;-50
2021/07/06 04:57:51;;;;;;;;;;;17.40;99.90;;;;;;5056695;28;19924;-51
2021/07/06 05:00:17;;;;;;;;;;;17.40;99.90;;;;;;5054439;28;19909;-47
2021/07/06 05:02:44;;;;;;;;;;;17.40;99.90;;;;;;5051714;28;19909;-46
2021/07/06 05:05:10;;;;;;;;;;;17.50;99.90;;;;;;5055187;28;21254;-47
2021/07/06 05:07:35;;;;;;;;;;;17.50;99.90;;;;;;5052978;28;19915;-48
2021/07/06 05:10:02;;;;;;;;;;;17.60;99.90;;;;;;5055938;28;20290;-48
2021/07/06 05:12:28;;;;;;;;;;;17.60;99.90;;;;;;5053700;28;19963;-51
2021/07/06 05:14:53;;;;;;;;;;;17.70;99.90;;;;;;5056567;28;19909;-46
2021/07/06 05:17:19;;;;;;;;;;;17.70;99.90;;;;;;5054279;28;19944;-47
2021/07/06 05:19:44;;;;;;;;;;;17.80;99.90;;;;;;5051460;28;19909;-49
2021/07/06 05:22:10;;;;;;;;;;;17.80;99.90;;;;;;5054662;28;19939;-46
2021/07/06 05:24:35;;;;;;;;;;;17.90;99.90;;;;;;5051938;28;19934;-45
2021/07/06 05:27:01;;;;;;;;;;;17.90;99.90;;;;;;5056261;28;19978;-51
2021/07/06 05:29:26;;;;;;;;;;;17.90;99.90;;;;;;5051066;28;20375;-48
2021/07/06 05:31:51;;;;;;;;;;;18.00;99.90;;;;;;5054780;28;19931;-46
2021/07/06 05:34:17;;;;;;;;;;;18.00;99.90;;;;;;5051505;28;19912;-50
2021/07/06 05:36:43;;;;;;;;;;;18.10;99.90;;;;;;5055022;28;20363;-48
2021/07/06 05:39:09;;;;;;;;;;;18.10;99.90;;;;;;5052538;28;20410;-47
2021/07/06 05:41:35;;;;;;;;;;;18.20;99.90;;;;;;5056117;28;19909;-50
2021/07/06 05:44:00;;;;;;;;;;;18.30;99.90;;;;;;5053782;28;19932;-48
2021/07/06 05:46:29;;;;;;;;;;;18.30;99.90;;;;;;5050496;28;19955;-46
2021/07/06 05:48:55;;;;;;;;;;;18.40;99.90;;;;;;5054499;28;19913;-46
2021/07/06 05:51:20;;;;;;;;;;;18.40;99.90;;;;;;5076173;22;19970;-60
2021/07/06 05:53:49;;;;;;;;;;;18.40;99.90;;;;;;5036905;28;19916;-57
2021/07/06 05:56:15;;;;;;;;;;;18.50;99.90;;;;;;5033756;28;20321;-58
2021/07/06 05:58:40;;;;;;;;;;;18.50;99.90;;;;;;5055424;28;20330;-58
2021/07/06 06:01:06;;;;;;;;;;;18.50;99.90;;;;;;5050804;28;19913;-58
2021/07/06 06:03:31;;;;;;;;;;;18.50;99.90;;;;;;5042305;28;20410;-59
2021/07/06 06:05:57;;;;;;;;;;;18.60;99.90;;;;;;5023790;28;20054;-57
2021/07/06 06:08:22;;;;;;;;;;;18.70;99.90;;;;;;5041810;28;19909;-56
2021/07/06 06:10:47;;;;;;;;;;;18.80;99.90;;;;;;5024583;28;20019;-57
2021/07/06 06:13:13;;;;;;;;;;;18.90;99.90;;;;;;5043624;28;20687;-59
2021/07/06 06:15:39;;;;;;;;;;;19.00;99.90;;;;;;5025364;28;19916;-58
2021/07/06 06:18:04;;;;;;;;;;;19.00;99.90;;;;;;5041551;28;19959;-57
2021/07/06 06:20:30;;;;;;;;;;;19.10;99.90;;;;;;5024134;28;19908;-58
2021/07/06 06:22:55;;;;;;;;;;;19.20;99.90;;;;;;5045313;28;19944;-57
2021/07/06 06:25:21;;;;;;;;;;;19.50;99.90;;;;;;5041265;28;19909;-57
2021/07/06 06:27:47;;;;;;;;;;;19.60;99.90;;;;;;5034295;28;19916;-58
2021/07/06 06:30:13;;;;;;;;;;;19.80;99.90;;;;;;5029501;28;20062;-58
2021/07/06 06:32:39;;;;;;;;;;;20.00;99.90;;;;;;5023569;28;19920;-57
2021/07/06 06:35:05;;;;;;;;;;;20.20;99.90;;;;;;5034394;28;19909;-58
2021/07/06 06:37:30;;;;;;;;;;;20.40;99.90;;;;;;5042456;28;19962;-58
2021/07/06 06:39:56;;;;;;;;;;;20.60;99.90;;;;;;5046887;28;19948;-54
2021/07/06 06:42:21;;;;;;;;;;;21.00;99.90;;;;;;5045368;28;20333;-59
2021/07/06 06:44:47;;;;;;;;;;;21.10;99.90;;;;;;5020606;28;20012;-59
2021/07/06 06:47:13;;;;;;;;;;;21.20;99.90;;;;;;5029445;28;19938;-58
2021/07/06 06:49:38;;;;;;;;;;;21.10;99.90;;;;;;5039793;28;19967;-60
2021/07/06 06:52:04;;;;;;;;;;;21.00;99.90;;;;;;5047127;28;20008;-55
2021/07/06 06:54:31;;;;;;;;;;;20.90;99.90;;;;;;5042285;28;19910;-60
2021/07/06 06:56:58;;;;;;;;;;;20.90;99.90;;;;;;5046945;28;19909;-59
2021/07/06 06:59:24;;;;;;;;;;;20.80;99.90;;;;;;5021574;28;19920;-60
2021/07/06 07:01:49;;;;;;;;;;;20.80;99.90;;;;;;5038335;28;19909;-59
2021/07/06 07:04:15;;;;;;;;;;;20.80;99.90;;;;;;5041664;28;19909;-58
2021/07/06 07:06:40;;;;;;;;;;;20.80;99.90;;;;;;5039158;28;19944;-59
2021/07/06 07:09:09;;;;;;;;;;;20.90;99.90;;;;;;5029420;28;19913;-60
2021/07/06 07:11:35;;;;;;;;;;;20.90;99.90;;;;;;5023816;28;19908;-59
2021/07/06 07:14:00;;;;;;;;;;;21.00;99.90;;;;;;5006220;28;19909;-60
2021/07/06 07:16:26;;;;;;;;;;;21.00;99.90;;;;;;5017353;28;20011;-59
2021/07/06 07:18:51;;;;;;;;;;;21.10;99.90;;;;;;5040628;28;19917;-58
2021/07/06 07:21:17;;;;;;;;;;;21.20;99.90;;;;;;5051106;28;19909;-59
2021/07/06 07:23:42;;;;;;;;;;;21.30;99.90;;;;;;5024784;28;19918;-59
2021/07/06 07:26:08;;;;;;;;;;;21.30;99.90;;;;;;5030286;28;19909;-57
2021/07/06 07:28:33;;;;;;;;;;;21.30;99.90;;;;;;5039642;28;19954;-59
2021/07/06 07:30:59;;;;;;;;;;;21.40;99.90;;;;;;5042146;28;19909;-60
2021/07/06 07:33:24;;;;;;;;;;;21.50;99.90;;;;;;5045702;28;19909;-59
2021/07/06 07:35:49;;;;;;;;;;;21.60;99.90;;;;;;5026697;28;20310;-60
2021/07/06 07:38:15;;;;;;;;;;;21.70;99.90;;;;;;5020907;28;19917;-58
2021/07/06 07:40:40;;;;;;;;;;;21.80;99.90;;;;;;5050779;28;20390;-58
2021/07/06 07:43:06;;;;;;;;;;;21.90;99.90;;;;;;5028585;28;20093;-58
2021/07/06 07:45:35;;;;;;;;;;;22.00;99.90;;;;;;5044859;28;20000;-57
2021/07/06 07:48:03;;;;;;;;;;;22.30;99.90;;;;;;5042794;28;20334;-60
2021/07/06 07:50:28;;;;;;;;;;;22.50;99.90;;;;;;5045607;28;20012;-59
2021/07/06 07:52:54;;;;;;;;;;;22.50;99.90;;;;;;5047512;28;20431;-59
2021/07/06 07:55:19;;;;;;;;;;;22.80;99.90;;;;;;5046073;28;19908;-56
2021/07/06 07:57:45;;;;;;;;;;;23.00;99.90;;;;;;5018763;28;19917;-59
2021/07/06 08:00:12;;;;;;;;;;;23.10;99.90;;;;;;5046796;28;19909;-56
2021/07/06 08:02:37;;;;;;;;;;;23.30;99.90;;;;;;5044243;28;19916;-60
2021/07/06 08:05:03;;;;;;;;;;;23.50;99.90;;;;;;5046235;28;20303;-58
2021/07/06 08:07:30;;;;;;;;;;;23.60;99.90;;;;;;5045392;28;19912;-61
2021/07/06 08:09:55;;;;;;;;;;;23.80;99.90;;;;;;5025740;28;19916;-59
2021/07/06 08:12:21;;;;;;;;;;;24.00;99.90;;;;;;5039047;28;19917;-57
2021/07/06 08:14:48;;;;;;;;;;;24.20;99.90;;;;;;5049271;28;20315;-58
2021/07/06 08:17:13;;;;;;;;;;;24.40;99.90;;;;;;5046992;28;19909;-59
2021/07/06 08:19:39;;;;;;;;;;;24.60;99.90;;;;;;5043587;28;19923;-59
2021/07/06 08:22:04;;;;;;;;;;;24.70;99.90;;;;;;5045964;28;19909;-60
2021/07/06 08:24:30;;;;;;;;;;;24.70;99.90;;;;;;5045195;28;19913;-60
2021/07/06 08:26:56;;;;;;;;;;;24.90;99.90;;;;;;5022485;28;19987;-60
2021/07/06 08:29:23;;;;;;;;;;;25.10;99.90;;;;;;5041775;28;19954;-57
2021/07/06 08:31:49;;;;;;;;;;;25.20;99.90;;;;;;5025864;28;20013;-60
2021/07/06 08:34:14;;;;;;;;;;;25.40;99.90;;;;;;5042953;28;19992;-58
2021/07/06 08:36:40;;;;;;;;;;;25.50;99.90;;;;;;5047956;28;19948;-60
2021/07/06 08:39:05;;;;;;;;;;;25.60;99.90;;;;;;5045126;28;19956;-58
2021/07/06 08:41:32;;;;;;;;;;;25.80;99.90;;;;;;5049114;28;19912;-60
2021/07/06 08:43:58;;;;;;;;;;;25.80;99.90;;;;;;5027606;28;19928;-58
2021/07/06 08:46:23;;;;;;;;;;;26.00;99.90;;;;;;5024904;28;19909;-60
2021/07/06 08:48:49;;;;;;;;;;;26.20;99.90;;;;;;5025709;28;19959;-54
2021/07/06 08:51:17;;;;;;;;;;;26.30;99.90;;;;;;5042753;28;19967;-59
2021/07/06 08:53:42;;;;;;;;;;;26.50;99.90;;;;;;5047806;28;20382;-55
2021/07/06 08:56:08;;;;;;;;;;;26.60;99.90;;;;;;5044559;28;19916;-55
2021/07/06 08:58:33;;;;;;;;;;;26.60;99.90;;;;;;5048745;28;20322;-58
2021/07/06 09:00:59;;;;;;;;;;;26.40;99.90;;;;;;5044881;28;19960;-56
2021/07/06 09:03:24;;;;;;;;;;;26.20;99.90;;;;;;5024605;28;19916;-59
2021/07/06 09:06:00;;;;;;;;;;;26.00;99.90;;;;;;5024944;28;19920;-56
2021/07/06 09:08:28;;;;;;;;;;;25.60;99.90;;;;;;5043456;28;19908;-60
2021/07/06 09:10:53;;;;;;;;;;;25.50;99.90;;;;;;5047871;28;19948;-61
2021/07/06 09:13:19;;;;;;;;;;;25.40;99.90;;;;;;5044649;28;19967;-61
2021/07/06 09:15:52;;;;;;;;;;;25.40;99.90;;;;;;5048169;28;19909;-61
2021/07/06 09:18:20;;;;;;;;;;;25.30;99.90;;;;;;5022085;28;20307;-61
2021/07/06 09:20:58;;;;;;;;;;;25.20;99.90;;;;;;5042827;28;19916;-61
2021/07/06 09:23:27;;;;;;;;;;;25.00;99.90;;;;;;5017659;28;20409;-61
2021/07/06 09:26:12;;;;;;;;;;;24.90;99.90;;;;;;5049012;28;20403;-60
2021/07/06 09:28:43;;;;;;;;;;;24.70;99.90;;;;;;5037268;28;19909;-56
2021/07/06 09:31:27;;;;;;;;;;;24.50;99.90;;;;;;5045128;28;20115;-60
2021/07/06 09:33:56;;;;;;;;;;;24.30;99.90;;;;;;5042022;28;19909;-58
2021/07/06 09:36:47;;;;;;;;;;;24.20;99.90;;;;;;5046717;28;20394;-59
2021/07/06 09:39:19;;;;;;;;;;;24.20;99.90;;;;;;5013868;28;19916;-58
2021/07/06 09:41:55;;;;;;;;;;;24.20;99.90;;;;;;5047654;28;19912;-60
2021/07/06 09:44:22;;;;;;;;;;;24.30;99.90;;;;;;5039150;28;19909;-59
2021/07/06 09:46:49;;;;;;;;;;;24.50;99.90;;;;;;5044635;28;19909;-60
2021/07/06 09:49:16;;;;;;;;;;;24.70;99.90;;;;;;5039953;28;19908;-60
2021/07/06 09:51:42;;;;;;;;;;;24.80;99.90;;;;;;5044353;28;19917;-57
2021/07/06 09:54:07;;;;;;;;;;;24.90;99.90;;;;;;5046037;28;20292;-61
2021/07/06 09:56:39;;;;;;;;;;;25.10;99.90;;;;;;5043942;28;19963;-61
2021/07/06 09:59:05;;;;;;;;;;;25.20;99.90;;;;;;5047423;28;19982;-60
2021/07/06 10:01:31;;;;;;;;;;;25.30;99.90;;;;;;5039205;28;19913;-59
2021/07/06 10:03:57;;;;;;;;;;;25.60;99.90;;;;;;5045911;28;20109;-60
2021/07/06 10:06:25;;;;;;;;;;;25.90;99.90;;;;;;5042300;28;20366;-59
2021/07/06 10:08:51;;;;;;;;;;;26.00;99.90;;;;;;5027941;28;19987;-58
2021/07/06 10:11:17;;;;;;;;;;;26.10;99.90;;;;;;5044859;28;19912;-59
2021/07/06 10:13:42;;;;;;;;;;;26.00;99.90;;;;;;5045439;28;19909;-60
2021/07/06 10:16:08;;;;;;;;;;;25.90;99.90;;;;;;5023811;28;19909;-60
2021/07/06 10:18:34;;;;;;;;;;;25.90;99.90;;;;;;5039063;28;19929;-60
2021/07/06 10:21:00;;;;;;;;;;;26.00;99.90;;;;;;5045882;28;19939;-58
2021/07/06 10:23:25;;;;;;;;;;;26.20;99.90;;;;;;5041565;28;19913;-58
2021/07/06 10:25:55;;;;;;;;;;;26.30;99.90;;;;;;5045330;28;19912;-57
2021/07/06 10:28:22;;;;;;;;;;;26.30;99.90;;;;;;5034973;28;20387;-58
2021/07/06 10:30:48;;;;;;;;;;;26.30;99.90;;;;;;5023759;28;19908;-59
2021/07/06 10:33:28;;;;;;;;;;;26.30;99.90;;;;;;5034648;28;20008;-57
2021/07/06 10:35:54;;;;;;;;;;;26.10;99.90;;;;;;5044926;28;19959;-58
2021/07/06 10:38:32;;;;;;;;;;;26.00;99.90;;;;;;5044582;28;19949;-56
2021/07/06 10:41:08;;;;;;;;;;;26.00;99.90;;;;;;5046367;28;19909;-55
2021/07/06 10:43:42;;;;;;;;;;;25.80;99.90;;;;;;5026178;28;19909;-57
2021/07/06 10:46:17;;;;;;;;;;;25.70;99.90;;;;;;5038614;28;20039;-55
2021/07/06 10:48:43;;;;;;;;;;;25.50;99.90;;;;;;5045406;28;19909;-55
2021/07/06 10:51:09;;;;;;;;;;;25.40;99.90;;;;;;5040898;28;20431;-56
2021/07/06 10:53:34;;;;;;;;;;;25.30;99.90;;;;;;5047954;28;19928;-59
2021/07/06 10:56:04;;;;;;;;;;;25.20;99.90;;;;;;5046880;28;20411;-54
2021/07/06 10:58:47;;;;;;;;;;;25.10;99.90;;;;;;5030525;28;19917;-57
2021/07/06 11:01:31;;;;;;;;;;;25.00;99.90;;;;;;5044987;28;19928;-58
2021/07/06 11:03:56;;;;;;;;;;;24.90;99.90;;;;;;5049102;28;20184;-54
2021/07/06 11:06:40;;;;;;;;;;;24.80;99.90;;;;;;5045737;28;19915;-59
2021/07/06 11:09:06;;;;;;;;;;;24.70;99.90;;;;;;5051599;28;19956;-55
2021/07/06 11:11:35;;;;;;;;;;;24.70;99.90;;;;;;5046100;28;19909;-56
2021/07/06 11:14:18;;;;;;;;;;;24.60;99.90;;;;;;5051223;28;19955;-57
2021/07/06 11:16:54;;;;;;;;;;;24.70;99.90;;;;;;5045697;28;19910;-55
2021/07/06 11:19:33;;;;;;;;;;;24.70;99.90;;;;;;5037994;28;20148;-58
2021/07/06 11:22:08;;;;;;;;;;;24.70;99.90;;;;;;5046716;28;19913;-57
2021/07/06 11:24:40;;;;;;;;;;;24.60;99.90;;;;;;5046314;28;19916;-55
2021/07/06 11:27:06;;;;;;;;;;;24.60;99.90;;;;;;5041974;28;19956;-59
2021/07/06 11:29:39;;;;;;;;;;;24.60;99.90;;;;;;5045233;28;20375;-56
2021/07/06 11:32:15;;;;;;;;;;;24.60;99.90;;;;;;5047481;28;20003;-56
2021/07/06 11:34:41;;;;;;;;;;;24.70;99.90;;;;;;5028616;28;19955;-56
2021/07/06 11:37:11;;;;;;;;;;;24.70;99.90;;;;;;5049302;28;19967;-59
2021/07/06 11:39:36;;;;;;;;;;;24.70;99.90;;;;;;5047705;28;20394;-59
2021/07/06 11:42:03;;;;;;;;;;;24.70;99.90;;;;;;5050262;28;19916;-59
2021/07/06 11:44:30;;;;;;;;;;;24.70;99.90;;;;;;5025637;28;23429;-58
2021/07/06 11:47:12;;;;;;;;;;;24.60;99.90;;;;;;5050834;28;20040;-59
2021/07/06 11:49:38;;;;;;;;;;;24.60;99.90;;;;;;5026881;28;19909;-56
2021/07/06 11:52:04;;;;;;;;;;;24.60;99.90;;;;;;5052401;22;19932;-82
2021/07/06 11:54:29;;;;;;;;;;;24.60;99.90;;;;;;5030806;28;19913;-81
2021/07/06 11:57:21;;;;;;;;;;;24.50;99.90;;;;;;5039376;28;19909;-79
2021/07/06 11:59:46;;;;;;;;;;;24.40;99.90;;;;;;5026580;28;19964;-81
2021/07/06 12:02:13;;;;;;;;;;;24.30;99.90;;;;;;5033344;28;19910;-79
2021/07/06 12:04:39;;;;;;;;;;;24.30;99.90;;;;;;5008064;28;19909;-81
2021/07/06 12:07:05;;;;;;;;;;;24.20;99.90;;;;;;5011997;28;19921;-80
2021/07/06 12:09:31;;;;;;;;;;;24.20;99.90;;;;;;5030077;28;19909;-82
2021/07/06 12:12:25;;;;;;;;;;;24.10;99.90;;;;;;5029174;28;20399;-80
2021/07/06 12:14:51;;;;;;;;;;;24.00;99.90;;;;;;5013701;28;19909;-81
2021/07/06 12:17:26;;;;;;;;;;;23.90;99.90;;;;;;5011417;28;20012;-80
2021/07/06 12:19:52;;;;;;;;;;;23.90;99.90;;;;;;5036964;28;20405;-82
2021/07/06 12:22:21;;;;;;;;;;;23.80;99.90;;;;;;5015159;28;19910;-79
2021/07/06 12:24:47;;;;;;;;;;;23.80;99.90;;;;;;5022140;28;19909;-80
2021/07/06 12:27:15;;;;;;;;;;;23.70;99.90;;;;;;5018920;28;20364;-81
2021/07/06 12:29:41;;;;;;;;;;;23.60;99.90;;;;;;5013416;28;19916;-80
2021/07/06 12:32:12;;;;;;;;;;;23.50;99.90;;;;;;5046899;28;19913;-79
2021/07/06 12:34:37;;;;;;;;;;;23.40;99.90;;;;;;5018220;28;19935;-80
2021/07/06 12:37:03;;;;;;;;;;;23.40;99.90;;;;;;5018157;28;19909;-79
2021/07/06 12:39:32;;;;;;;;;;;23.40;99.90;;;;;;5011970;28;19917;-79
2021/07/06 12:42:04;;;;;;;;;;;23.30;99.90;;;;;;5016619;28;20286;-81
2021/07/06 12:44:32;;;;;;;;;;;23.30;99.90;;;;;;5009383;28;19920;-83
2021/07/06 12:47:12;;;;;;;;;;;23.20;99.90;;;;;;5010667;28;19910;-82
2021/07/06 12:49:37;;;;;;;;;;;23.20;99.90;;;;;;5025774;28;19913;-82
2021/07/06 12:52:03;;;;;;;;;;;23.10;99.90;;;;;;5025515;28;19925;-79
2021/07/06 12:54:33;;;;;;;;;;;23.10;99.90;;;;;;5015028;28;19913;-82
2021/07/06 12:56:58;;;;;;;;;;;23.00;99.90;;;;;;5009781;28;19909;-81
2021/07/06 12:59:25;;;;;;;;;;;23.00;99.90;;;;;;5033390;28;19918;-81
2021/07/06 13:01:51;;;;;;;;;;;22.90;99.90;;;;;;5016930;28;19996;-78
2021/07/06 13:04:17;;;;;;;;;;;22.90;99.90;;;;;;5030170;28;19952;-82
2021/07/06 13:06:42;;;;;;;;;;;22.90;99.90;;;;;;5017752;28;20360;-81
2021/07/06 13:09:08;;;;;;;;;;;22.90;99.90;;;;;;5031897;28;19924;-80
2021/07/06 13:11:34;;;;;;;;;;;22.80;99.90;;;;;;5015355;28;19916;-79
2021/07/06 13:14:16;;;;;;;;;;;22.80;99.90;;;;;;5015837;28;19909;-79
2021/07/06 13:16:42;;;;;;;;;;;22.80;99.90;;;;;;5011842;28;19924;-81
2021/07/06 13:19:16;;;;;;;;;;;22.80;99.90;;;;;;5032010;28;19913;-82
2021/07/06 13:21:42;;;;;;;;;;;22.70;99.90;;;;;;5017719;28;19995;-80
2021/07/06 13:24:07;;;;;;;;;;;22.80;99.90;;;;;;5033239;28;19933;-80
2021/07/06 13:26:33;;;;;;;;;;;22.70;99.90;;;;;;5026753;28;19994;-81
2021/07/06 13:28:59;;;;;;;;;;;22.70;99.90;;;;;;5025004;28;19910;-81
2021/07/06 13:31:26;;;;;;;;;;;22.70;99.90;;;;;;5010832;28;20276;-81
2021/07/06 13:33:52;;;;;;;;;;;22.70;99.90;;;;;;5017553;28;19913;-81
2021/07/06 13:36:17;;;;;;;;;;;22.70;99.90;;;;;;5026181;28;19918;-80
2021/07/06 13:38:43;;;;;;;;;;;22.80;99.90;;;;;;5022966;28;20000;-81
2021/07/06 13:41:08;;;;;;;;;;;23.20;99.90;;;;;;5003013;28;19916;-81
2021/07/06 13:43:34;;;;;;;;;;;23.50;99.90;;;;;;5026232;28;19910;-79
2021/07/06 13:46:01;;;;;;;;;;;23.90;99.90;;;;;;5014076;28;19931;-82
2021/07/06 13:48:26;;;;;;;;;;;24.10;99.90;;;;;;5026762;28;20306;-81
2021/07/06 13:50:52;;;;;;;;;;;24.20;99.90;;;;;;5015077;28;19913;-80
2021/07/06 13:53:18;;;;;;;;;;;24.20;99.90;;;;;;5028634;28;19920;-80
2021/07/06 13:55:43;;;;;;;;;;;24.30;99.90;;;;;;5014173;28;19909;-80
2021/07/06 13:58:11;;;;;;;;;;;24.40;99.90;;;;;;5010402;28;20328;-81
2021/07/06 14:00:37;;;;;;;;;;;24.50;99.90;;;;;;5013505;28;19920;-80
2021/07/06 14:03:07;;;;;;;;;;;24.60;99.90;;;;;;5015268;28;19909;-80
2021/07/06 14:05:33;;;;;;;;;;;24.70;99.90;;;;;;5013961;28;19916;-81
2021/07/06 14:07:59;;;;;;;;;;;24.80;99.90;;;;;;5037551;28;20338;-81
2021/07/06 14:10:27;;;;;;;;;;;24.90;99.90;;;;;;5019840;28;20589;-82
2021/07/06 14:12:57;;;;;;;;;;;24.90;99.90;;;;;;5014348;28;19909;-79
2021/07/06 14:15:22;;;;;;;;;;;24.90;99.90;;;;;;5012492;28;20377;-82
2021/07/06 14:17:48;;;;;;;;;;;24.80;99.90;;;;;;5008849;28;20055;-79
2021/07/06 14:20:14;;;;;;;;;;;24.70;99.90;;;;;;5025271;28;20034;-82
2021/07/06 14:22:41;;;;;;;;;;;24.80;99.90;;;;;;5029612;28;20011;-82
2021/07/06 14:25:07;;;;;;;;;;;25.00;99.90;;;;;;5015253;28;19909;-79
2021/07/06 14:27:32;;;;;;;;;;;25.00;99.90;;;;;;5013665;28;19917;-81
2021/07/06 14:29:58;;;;;;;;;;;25.00;99.90;;;;;;5013771;28;20406;-82